Time;durP1;ratioP1;P1;durP2;ratioP2;P2;SDS_P1;SDS_P2;PMS_P1;PMS_P2;Temp;Humidity;BMP_temperature;BMP_pressure;BME280_temperature;BME280_humidity;BME280_pressure;Samples;Min_cycle;Max_cycle;Signal;HPM_P1;HPM_P2
2023/12/02 00:01:57;;;;;;;14.97;8.60;;;-1.50;99.90;-1.90;99604.00;;;;4951419;28;88243;-68
2023/12/02 00:04:23;;;;;;;16.37;8.40;;;-1.50;99.90;-1.90;99595.00;;;;4949766;28;110382;-68
2023/12/02 00:06:49;;;;;;;16.50;8.33;;;-1.50;99.90;-2.00;99598.00;;;;4950687;28;88906;-68
2023/12/02 00:09:14;;;;;;;15.20;9.13;;;-1.50;99.90;-2.00;99587.00;;;;4948551;28;117694;-68
2023/12/02 00:11:40;;;;;;;12.93;8.83;;;-1.60;99.90;-2.00;99599.00;;;;4952178;28;87764;-69
2023/12/02 00:14:06;;;;;;;14.03;8.97;;;-1.60;99.90;-2.00;99585.00;;;;4952241;28;109608;-68
2023/12/02 00:16:31;;;;;;;17.33;8.70;;;-1.60;99.90;-2.00;99587.00;;;;4946861;28;109364;-67
2023/12/02 00:18:57;;;;;;;12.47;8.30;;;-1.60;99.90;-2.00;99581.00;;;;4952992;28;117564;-68
2023/12/02 00:21:22;;;;;;;15.60;8.47;;;-1.60;99.90;-2.00;99594.00;;;;4948709;28;117408;-69
2023/12/02 00:23:48;;;;;;;16.47;9.03;;;-1.60;99.90;-2.00;99590.00;;;;4956489;28;109552;-68
2023/12/02 00:26:14;;;;;;;16.03;9.37;;;-1.60;99.90;-2.00;99593.00;;;;4950151;28;106626;-68
2023/12/02 00:28:39;;;;;;;12.77;7.87;;;-1.60;99.90;-2.00;99607.00;;;;4949987;28;117940;-68
2023/12/02 00:31:06;;;;;;;14.23;8.67;;;-1.60;99.90;-2.00;99604.00;;;;4945296;28;117547;-68
2023/12/02 00:33:31;;;;;;;12.50;8.17;;;-1.60;99.90;-2.00;99600.00;;;;4948176;28;87860;-69
2023/12/02 00:35:57;;;;;;;15.60;8.33;;;-1.60;99.90;-2.00;99593.00;;;;4950578;28;108359;-68
2023/12/02 00:38:23;;;;;;;10.27;8.27;;;-1.60;99.90;-2.00;99593.00;;;;4949803;28;91035;-68
2023/12/02 00:40:48;;;;;;;13.53;8.10;;;-1.60;99.90;-2.00;99599.00;;;;4953668;28;117825;-67
2023/12/02 00:43:14;;;;;;;12.33;7.77;;;-0.70;99.90;-2.00;99597.00;;;;4952797;28;89438;-69
2023/12/02 00:45:40;;;;;;;12.40;7.73;;;-1.50;99.90;-2.00;99594.00;;;;4957880;28;107000;-68
2023/12/02 00:48:05;;;;;;;13.93;8.93;;;-1.60;99.90;-1.90;99593.00;;;;4957613;28;88836;-68
2023/12/02 00:50:31;;;;;;;18.83;8.80;;;-1.60;99.90;-1.90;99583.00;;;;4953181;28;92945;-68
2023/12/02 00:52:57;;;;;;;16.73;9.67;;;-1.60;99.90;-1.90;99587.00;;;;4958386;28;110655;-69
2023/12/02 00:55:23;;;;;;;16.00;9.57;;;-0.70;99.90;-1.90;99594.00;;;;4954883;28;88865;-69
2023/12/02 00:57:49;;;;;;;15.03;8.73;;;-1.50;99.90;-1.90;99596.00;;;;4954803;28;88418;-69
2023/12/02 01:00:16;;;;;;;14.30;8.57;;;-1.50;99.90;-1.90;99610.00;;;;4954481;28;90005;-69
2023/12/02 01:02:47;;;;;;;14.60;8.03;;;-1.60;99.90;-2.00;99614.00;;;;4951646;28;99598;-69
2023/12/02 01:05:13;;;;;;;17.40;8.83;;;-1.50;99.90;-2.00;99627.00;;;;4954795;28;108056;-69
2023/12/02 01:07:39;;;;;;;17.93;8.63;;;-1.50;99.90;-2.00;99615.00;;;;4950201;28;88033;-69
2023/12/02 01:10:06;;;;;;;14.43;8.87;;;-1.10;99.90;-2.00;99610.00;;;;4950592;28;117259;-69
2023/12/02 01:12:31;;;;;;;14.53;7.73;;;-1.60;99.90;-2.00;99612.00;;;;4953650;28;87022;-69
2023/12/02 01:14:57;;;;;;;17.77;8.70;;;-0.70;99.90;-2.10;99617.00;;;;4950438;28;107669;-68
2023/12/02 01:17:23;;;;;;;13.17;7.27;;;-1.60;99.90;-2.10;99612.00;;;;4950524;28;117351;-68
2023/12/02 01:19:48;;;;;;;13.93;8.37;;;-1.70;99.90;-2.10;99604.00;;;;4948940;28;117100;-67
2023/12/02 01:22:14;;;;;;;15.50;8.60;;;-1.70;99.90;-2.10;99611.00;;;;4954522;28;109934;-67
2023/12/02 01:24:40;;;;;;;15.03;9.50;;;-1.80;99.90;-2.20;99610.00;;;;4955291;28;108212;-69
2023/12/02 01:27:05;;;;;;;12.33;7.90;;;-1.70;99.90;-2.20;99599.00;;;;4949048;28;116409;-67
2023/12/02 01:29:31;;;;;;;15.87;8.83;;;-1.70;99.90;-2.20;99602.00;;;;4951711;28;117229;-68
2023/12/02 01:31:56;;;;;;;15.47;7.90;;;-1.70;99.90;-2.20;99609.00;;;;4954283;28;88108;-70
2023/12/02 01:34:22;;;;;;;18.33;9.07;;;-1.80;99.90;-2.20;99601.00;;;;4952745;28;108497;-68
2023/12/02 01:36:48;;;;;;;19.93;9.53;;;-1.60;99.90;-2.30;99591.00;;;;4950042;28;116878;-67
2023/12/02 01:39:14;;;;;;;14.93;9.20;;;-1.90;99.90;-2.30;99604.00;;;;4953933;28;117353;-68
2023/12/02 01:41:40;;;;;;;14.43;8.00;;;-1.90;99.90;-2.30;99613.00;;;;4954581;28;88037;-68
2023/12/02 01:44:05;;;;;;;15.70;8.07;;;-1.80;99.90;-2.30;99628.00;;;;4950404;28;91650;-67
2023/12/02 01:46:31;;;;;;;12.10;8.33;;;-1.90;99.90;-2.30;99634.00;;;;4948665;28;116555;-67
2023/12/02 01:48:59;;;;;;;14.57;8.77;;;-1.80;99.90;-2.30;99640.00;;;;4954393;28;117291;-67
2023/12/02 01:51:26;;;;;;;17.43;9.07;;;-1.80;99.90;-2.20;99638.00;;;;4952364;28;101390;-67
2023/12/02 01:53:52;;;;;;;21.47;9.63;;;-1.80;99.90;-2.30;99633.00;;;;4955247;28;87738;-68
2023/12/02 01:56:19;;;;;;;16.87;9.37;;;-1.10;99.90;-2.30;99632.00;;;;4955073;28;110454;-68
2023/12/02 01:58:47;;;;;;;13.87;8.20;;;-1.80;99.90;-2.30;99617.00;;;;4951428;28;88157;-69
2023/12/02 02:01:12;;;;;;;14.37;7.97;;;-1.90;99.90;-2.30;99626.00;;;;4953938;28;87498;-67
2023/12/02 02:03:38;;;;;;;12.60;8.60;;;-1.90;99.90;-2.30;99611.00;;;;4953060;28;107540;-67
2023/12/02 02:06:06;;;;;;;18.00;9.23;;;-1.90;99.90;-2.30;99620.00;;;;4952603;28;104941;-67
2023/12/02 02:08:31;;;;;;;17.27;8.77;;;-2.00;99.90;-2.30;99622.00;;;;4954594;28;110337;-68
2023/12/02 02:10:58;;;;;;;14.40;8.27;;;-2.00;99.90;-2.40;99611.00;;;;4950593;28;111366;-67
2023/12/02 02:13:25;;;;;;;17.53;8.17;;;-1.90;99.90;-2.40;99609.00;;;;4950601;28;88031;-68
2023/12/02 02:15:50;;;;;;;18.93;7.83;;;-2.00;99.90;-2.40;99608.00;;;;4956230;28;88160;-67
2023/12/02 02:18:16;;;;;;;19.70;9.83;;;-2.00;99.90;-2.40;99610.00;;;;4949933;28;115530;-67
2023/12/02 02:20:42;;;;;;;14.67;8.00;;;-2.00;99.90;-2.50;99617.00;;;;4950735;28;109093;-67
2023/12/02 02:23:08;;;;;;;15.97;9.17;;;-2.00;99.90;-2.50;99614.00;;;;4954827;28;87865;-68
2023/12/02 02:25:34;;;;;;;13.77;7.47;;;-2.10;99.90;-2.50;99619.00;;;;4949417;28;87440;-68
2023/12/02 02:28:00;;;;;;;14.30;8.33;;;-2.20;99.90;-2.50;99623.00;;;;4956185;28;109471;-67
2023/12/02 02:30:25;;;;;;;12.73;8.50;;;-2.00;99.90;-2.50;99615.00;;;;4954290;28;110884;-68
2023/12/02 02:32:51;;;;;;;17.10;8.53;;;-2.10;99.90;-2.50;99610.00;;;;4950060;28;108425;-68
2023/12/02 02:35:17;;;;;;;11.63;8.50;;;-1.30;99.90;-2.50;99606.00;;;;4955852;28;117830;-67
2023/12/02 02:37:43;;;;;;;13.77;7.40;;;-2.20;99.90;-2.50;99613.00;;;;4953649;28;87949;-67
2023/12/02 02:40:09;;;;;;;13.30;7.73;;;-2.00;99.90;-2.60;99596.00;;;;4951802;28;87827;-68
2023/12/02 02:42:35;;;;;;;16.23;9.20;;;-2.10;99.90;-2.60;99592.00;;;;4953836;28;87812;-67
2023/12/02 02:45:01;;;;;;;15.80;8.90;;;-2.20;99.90;-2.60;99594.00;;;;4952171;28;117831;-67
2023/12/02 02:47:27;;;;;;;16.10;8.53;;;-2.20;99.90;-2.60;99593.00;;;;4951940;28;117068;-67
2023/12/02 02:49:52;;;;;;;17.10;9.00;;;-2.10;99.90;-2.60;99600.00;;;;4951209;28;88663;-67
2023/12/02 02:52:18;;;;;;;13.63;8.53;;;-2.20;99.90;-2.60;99598.00;;;;4949925;28;108227;-67
2023/12/02 02:54:44;;;;;;;12.03;8.30;;;-2.20;99.90;-2.60;99604.00;;;;4953707;28;88331;-68
2023/12/02 02:57:09;;;;;;;16.47;8.60;;;-2.10;99.90;-2.60;99606.00;;;;4948579;28;119839;-68
2023/12/02 02:59:35;;;;;;;18.47;9.70;;;-2.10;99.90;-2.60;99618.00;;;;4950503;28;107166;-68
2023/12/02 03:02:01;;;;;;;18.70;8.77;;;-2.10;99.90;-2.60;99618.00;;;;4948431;28;108389;-68
2023/12/02 03:04:26;;;;;;;19.30;9.90;;;-2.10;99.90;-2.50;99620.00;;;;4952136;28;117398;-68
2023/12/02 03:06:52;;;;;;;16.40;9.20;;;-2.20;99.90;-2.50;99623.00;;;;4952477;28;110285;-68
2023/12/02 03:09:18;;;;;;;15.67;8.97;;;-2.10;99.90;-2.50;99636.00;;;;4955195;28;108553;-68
2023/12/02 03:11:47;;;;;;;14.60;10.10;;;-2.10;99.90;-2.50;99620.00;;;;4950993;28;108122;-68
2023/12/02 03:14:12;;;;;;;23.40;9.83;;;-2.00;99.90;-2.50;99622.00;;;;4952461;28;87839;-68
2023/12/02 03:16:38;;;;;;;18.53;9.60;;;-2.10;99.90;-2.50;99621.00;;;;4953934;28;116344;-69
2023/12/02 03:19:04;;;;;;;13.47;6.80;;;-2.10;99.90;-2.50;99625.00;;;;4949568;28;111172;-69
2023/12/02 03:21:30;;;;;;;18.07;8.87;;;-2.00;99.90;-2.50;99624.00;;;;4954639;28;108557;-69
2023/12/02 03:23:55;;;;;;;14.53;7.23;;;-2.00;99.90;-2.50;99609.00;;;;4954470;28;117946;-67
2023/12/02 03:26:24;;;;;;;13.07;8.73;;;-2.10;99.90;-2.60;99610.00;;;;4952654;28;117002;-66
2023/12/02 03:28:49;;;;;;;14.40;8.73;;;-2.10;99.90;-2.60;99608.00;;;;4954376;28;88163;-66
2023/12/02 03:31:15;;;;;;;16.57;8.23;;;-2.10;99.90;-2.70;99602.00;;;;4949023;28;110559;-67
2023/12/02 03:33:41;;;;;;;14.13;7.43;;;-1.60;99.90;-2.70;99608.00;;;;4952264;28;116801;-65
2023/12/02 03:36:07;;;;;;;15.00;8.40;;;-2.20;99.90;-2.70;99602.00;;;;4947474;28;87889;-67
2023/12/02 03:38:33;;;;;;;14.97;8.57;;;-2.30;99.90;-2.80;99600.00;;;;4950821;28;99156;-68
2023/12/02 03:40:59;;;;;;;12.90;7.97;;;-2.30;99.90;-2.80;99608.00;;;;4950070;28;106622;-67
2023/12/02 03:43:25;;;;;;;16.00;8.50;;;-2.30;99.90;-2.80;99606.00;;;;4950863;28;87881;-68
2023/12/02 03:45:51;;;;;;;12.77;8.63;;;-2.40;99.90;-2.80;99605.00;;;;4951142;28;116458;-67
2023/12/02 03:48:16;;;;;;;16.53;8.23;;;-2.30;99.90;-2.90;99597.00;;;;4951237;28;110541;-68
2023/12/02 03:50:43;;;;;;;12.70;7.37;;;-2.40;99.90;-2.90;99590.00;;;;4952259;28;88062;-68
2023/12/02 03:53:09;;;;;;;15.10;8.73;;;-2.40;99.90;-2.90;99588.00;;;;4953455;28;87872;-67
2023/12/02 03:55:34;;;;;;;14.17;7.93;;;-2.50;99.90;-2.90;99595.00;;;;4949557;28;88664;-66
2023/12/02 03:58:00;;;;;;;12.73;8.10;;;-2.50;99.90;-2.90;99604.00;;;;4953605;28;110556;-67
2023/12/02 04:00:27;;;;;;;16.00;8.67;;;-2.40;99.90;-2.90;99597.00;;;;4951225;28;108550;-67
2023/12/02 04:02:52;;;;;;;18.73;8.40;;;-2.50;99.90;-2.90;99600.00;;;;4953399;28;88289;-67
2023/12/02 04:05:18;;;;;;;15.43;8.37;;;-2.50;99.90;-2.90;99606.00;;;;4948621;28;115607;-67
2023/12/02 04:07:43;;;;;;;14.87;8.97;;;-2.50;99.90;-2.90;99598.00;;;;4953632;28;107030;-66
2023/12/02 04:10:09;;;;;;;15.23;6.57;;;-2.50;99.90;-2.90;99604.00;;;;4953536;28;109204;-68
2023/12/02 04:12:35;;;;;;;13.43;7.83;;;-2.50;99.90;-2.90;99608.00;;;;4951210;28;119013;-67
2023/12/02 04:15:01;;;;;;;17.60;7.80;;;-2.40;99.90;-2.90;99592.00;;;;4952969;28;117926;-67
2023/12/02 04:17:26;;;;;;;14.13;8.37;;;-2.50;99.90;-2.90;99573.00;;;;4955217;28;89220;-68
2023/12/02 04:19:52;;;;;;;14.90;6.67;;;-2.60;99.90;-3.00;99572.00;;;;4954531;28;107774;-67
2023/12/02 04:22:19;;;;;;;14.23;8.63;;;-2.50;99.90;-3.00;99582.00;;;;4947273;28;118784;-68
2023/12/02 04:24:46;;;;;;;12.57;7.83;;;-2.50;99.90;-3.00;99601.00;;;;4954661;28;88870;-67
2023/12/02 04:27:11;;;;;;;11.90;7.00;;;-2.50;99.90;-3.00;99598.00;;;;4958236;28;101136;-66
2023/12/02 04:29:41;;;;;;;17.90;7.97;;;-2.50;99.90;-3.00;99594.00;;;;4953401;28;87709;-67
2023/12/02 04:32:10;;;;;;;18.23;8.87;;;-2.40;99.90;-3.00;99607.00;;;;4970011;28;87906;-67
2023/12/02 04:34:36;;;;;;;16.93;9.00;;;-2.60;99.90;-3.00;99602.00;;;;4957005;28;88733;-66
2023/12/02 04:37:02;;;;;;;15.87;8.33;;;-2.50;99.90;-3.00;99600.00;;;;4941667;28;100739;-67
2023/12/02 04:39:29;;;;;;;17.30;7.73;;;-2.50;99.90;-3.00;99600.00;;;;4951484;28;88109;-67
2023/12/02 04:41:54;;;;;;;12.33;7.10;;;-2.60;99.90;-3.00;99608.00;;;;4950137;28;109983;-68
2023/12/02 04:44:20;;;;;;;12.27;7.30;;;-2.40;99.90;-2.90;99620.00;;;;4954692;28;117186;-68
2023/12/02 04:46:46;;;;;;;12.30;7.10;;;-2.50;99.90;-2.90;99622.00;;;;4952678;28;103333;-67
2023/12/02 04:49:15;;;;;;;11.77;7.43;;;-2.40;99.90;-2.90;99625.00;;;;4952918;28;106887;-67
2023/12/02 04:51:40;;;;;;;18.33;7.73;;;-2.50;99.90;-3.00;99620.00;;;;4954592;28;88627;-67
2023/12/02 04:54:06;;;;;;;14.10;8.87;;;-2.50;99.90;-3.00;99618.00;;;;4952845;28;88997;-68
2023/12/02 04:56:32;;;;;;;15.83;7.67;;;-2.50;99.90;-2.90;99617.00;;;;4949535;28;87680;-68
2023/12/02 04:58:57;;;;;;;13.13;7.47;;;-2.50;99.90;-2.90;99627.00;;;;4952934;28;108573;-68
2023/12/02 05:01:23;;;;;;;14.17;7.30;;;-2.50;99.90;-2.90;99625.00;;;;4953171;28;88292;-68
2023/12/02 05:03:49;;;;;;;17.73;8.83;;;-2.50;99.90;-2.90;99635.00;;;;4955403;28;117246;-68
2023/12/02 05:06:15;;;;;;;16.00;8.57;;;-2.40;99.90;-2.90;99635.00;;;;4953013;28;111000;-67
2023/12/02 05:08:41;;;;;;;17.00;8.60;;;-2.50;99.90;-2.90;99628.00;;;;4951718;28;100324;-67
2023/12/02 05:11:07;;;;;;;12.07;7.43;;;-2.40;99.90;-2.90;99626.00;;;;4952075;28;103589;-67
2023/12/02 05:13:33;;;;;;;12.30;6.77;;;-2.40;99.90;-3.00;99631.00;;;;4951357;28;116266;-68
2023/12/02 05:15:59;;;;;;;14.27;7.50;;;-2.50;99.90;-3.00;99636.00;;;;4954718;28;87486;-67
2023/12/02 05:18:24;;;;;;;13.07;6.50;;;-2.50;99.90;-2.90;99642.00;;;;4955705;28;108753;-67
2023/12/02 05:20:50;;;;;;;21.07;9.00;;;-2.50;99.90;-2.90;99631.00;;;;4949003;28;117255;-67
2023/12/02 05:23:16;;;;;;;17.00;6.97;;;-2.50;99.90;-2.90;99634.00;;;;4954524;28;118050;-67
2023/12/02 05:25:41;;;;;;;16.10;8.17;;;-3.20;99.90;-2.90;99636.00;;;;4955892;28;109984;-66
2023/12/02 05:28:07;;;;;;;17.03;8.07;;;-2.40;99.90;-2.90;99646.00;;;;4952195;28;103971;-66
2023/12/02 05:30:36;;;;;;;19.07;8.00;;;-2.50;99.90;-2.80;99655.00;;;;4951303;28;112775;-66
2023/12/02 05:33:03;;;;;;;11.60;7.93;;;-2.40;99.90;-2.80;99654.00;;;;4949571;28;87768;-67
2023/12/02 05:35:29;;;;;;;13.10;7.97;;;-2.30;99.90;-2.80;99644.00;;;;4947169;28;87918;-67
2023/12/02 05:37:55;;;;;;;13.87;7.10;;;-2.30;99.90;-2.80;99653.00;;;;4948828;28;87815;-67
2023/12/02 05:40:21;;;;;;;15.27;8.57;;;-2.30;99.90;-2.70;99650.00;;;;4955488;28;116896;-67
2023/12/02 05:42:46;;;;;;;17.57;9.20;;;-2.30;99.90;-2.70;99647.00;;;;4953312;28;116319;-65
2023/12/02 05:45:12;;;;;;;21.73;9.60;;;-2.30;99.90;-2.70;99653.00;;;;4951007;28;87604;-67
2023/12/02 05:47:38;;;;;;;14.53;7.70;;;-2.10;99.90;-2.60;99646.00;;;;4952657;28;88835;-68
2023/12/02 05:50:04;;;;;;;13.60;8.57;;;-2.10;99.90;-2.70;99650.00;;;;4952907;28;88811;-67
2023/12/02 05:52:30;;;;;;;15.57;7.60;;;-2.20;99.90;-2.60;99641.00;;;;4951215;28;103434;-68
2023/12/02 05:54:55;;;;;;;18.80;9.83;;;-2.20;99.90;-2.60;99640.00;;;;4957679;28;108989;-69
2023/12/02 05:57:21;;;;;;;16.53;8.33;;;-2.20;99.90;-2.60;99642.00;;;;4954271;28;108608;-68
2023/12/02 05:59:47;;;;;;;15.97;8.87;;;-2.10;99.90;-2.60;99640.00;;;;4955307;28;119016;-69
2023/12/02 06:02:12;;;;;;;15.53;7.10;;;-2.20;99.90;-2.60;99638.00;;;;4955228;28;116659;-69
2023/12/02 06:04:38;;;;;;;17.60;8.73;;;-2.20;99.90;-2.60;99635.00;;;;4952708;28;88943;-69
2023/12/02 06:07:04;;;;;;;14.60;8.10;;;-2.30;99.90;-2.60;99638.00;;;;4957989;28;108743;-69
2023/12/02 06:09:29;;;;;;;16.03;8.67;;;-2.10;99.90;-2.60;99629.00;;;;4954936;28;116893;-67
2023/12/02 06:11:55;;;;;;;17.33;8.67;;;-2.70;99.90;-2.60;99644.00;;;;4951634;28;117528;-67
2023/12/02 06:14:20;;;;;;;14.83;8.80;;;-2.10;99.90;-2.60;99647.00;;;;4951344;28;110657;-69
2023/12/02 06:16:46;;;;;;;15.93;7.77;;;-2.20;99.90;-2.60;99640.00;;;;4947901;28;110111;-69
2023/12/02 06:19:12;;;;;;;22.90;9.50;;;-2.20;99.90;-2.60;99647.00;;;;4951389;28;102004;-69
2023/12/02 06:21:38;;;;;;;14.50;7.83;;;-2.20;99.90;-2.60;99655.00;;;;4950396;28;89008;-68
2023/12/02 06:24:04;;;;;;;12.97;8.37;;;-2.10;99.90;-2.50;99654.00;;;;4947365;28;88772;-67
2023/12/02 06:26:29;;;;;;;15.23;8.57;;;-2.20;99.90;-2.50;99666.00;;;;4947032;28;87933;-68
2023/12/02 06:28:55;;;;;;;14.27;7.60;;;-2.10;99.90;-2.50;99659.00;;;;4947833;28;118399;-68
2023/12/02 06:31:21;;;;;;;18.37;8.90;;;-2.10;99.90;-2.50;99654.00;;;;4950403;28;117258;-68
2023/12/02 06:33:46;;;;;;;18.37;8.47;;;-2.10;99.90;-2.40;99647.00;;;;4947757;28;109356;-68
2023/12/02 06:36:12;;;;;;;17.37;8.70;;;-2.00;99.90;-2.40;99644.00;;;;4947649;28;108394;-69
2023/12/02 06:38:38;;;;;;;18.60;9.63;;;-2.00;99.90;-2.40;99651.00;;;;4948222;28;88598;-67
2023/12/02 06:41:04;;;;;;;15.03;9.70;;;-2.20;99.90;-2.40;99664.00;;;;4951112;28;87651;-67
2023/12/02 06:43:29;;;;;;;16.30;8.90;;;-1.40;99.90;-2.40;99671.00;;;;4930917;28;95064;-68
2023/12/02 06:45:55;;;;;;;17.67;8.80;;;-2.00;99.90;-2.40;99688.00;;;;4946737;28;108805;-68
2023/12/02 06:48:21;;;;;;;23.43;8.93;;;-2.00;99.90;-2.40;99696.00;;;;4951467;28;90969;-67
2023/12/02 06:50:46;;;;;;;17.03;9.87;;;-2.10;99.90;-2.40;99695.00;;;;4950536;28;117064;-67
2023/12/02 06:53:15;;;;;;;14.57;8.67;;;-2.00;99.90;-2.40;99699.00;;;;4945761;28;111350;-69
2023/12/02 06:55:42;;;;;;;13.83;8.07;;;-2.00;99.90;-2.40;99703.00;;;;4945950;28;88137;-69
2023/12/02 06:58:08;;;;;;;18.53;9.83;;;-2.00;99.90;-2.40;99696.00;;;;4947166;28;107828;-69
2023/12/02 07:00:34;;;;;;;12.37;8.27;;;-1.90;99.90;-2.40;99704.00;;;;4946997;28;92890;-68
2023/12/02 07:02:59;;;;;;;17.70;9.23;;;-1.80;99.90;-2.40;99709.00;;;;4946036;28;88187;-67
2023/12/02 07:05:26;;;;;;;16.90;8.80;;;-2.00;99.90;-2.30;99719.00;;;;4945117;28;108888;-68
2023/12/02 07:07:52;;;;;;;16.43;8.10;;;-1.90;99.90;-2.40;99724.00;;;;4947379;28;88026;-68
2023/12/02 07:10:18;;;;;;;16.70;9.47;;;-1.90;99.90;-2.40;99716.00;;;;4947935;28;108656;-67
2023/12/02 07:12:44;;;;;;;19.10;9.73;;;-2.00;99.90;-2.40;99717.00;;;;4950334;28;87841;-68
2023/12/02 07:15:10;;;;;;;17.33;9.30;;;-1.70;99.90;-2.40;99722.00;;;;4952087;28;88107;-68
2023/12/02 07:17:36;;;;;;;18.80;9.90;;;-2.00;99.90;-2.40;99723.00;;;;4949188;28;111321;-68
2023/12/02 07:20:01;;;;;;;16.27;8.97;;;-1.90;99.90;-2.40;99735.00;;;;4945600;28;117594;-67
2023/12/02 07:22:27;;;;;;;14.43;8.70;;;-1.90;99.90;-2.40;99739.00;;;;4948677;28;107054;-67
2023/12/02 07:24:58;;;;;;;15.70;8.63;;;-1.90;99.90;-2.40;99739.00;;;;4946598;28;108767;-66
2023/12/02 07:27:24;;;;;;;16.10;8.63;;;-1.90;99.90;-2.40;99745.00;;;;4942193;28;116247;-67
2023/12/02 07:29:50;;;;;;;12.57;7.50;;;-2.00;99.90;-2.30;99738.00;;;;4946083;28;113390;-67
2023/12/02 07:32:15;;;;;;;14.30;8.40;;;-1.80;99.90;-2.30;99750.00;;;;4946026;28;109072;-67
2023/12/02 07:34:41;;;;;;;16.37;8.67;;;-1.80;99.90;-2.20;99746.00;;;;4950808;28;88146;-67
2023/12/02 07:37:07;;;;;;;16.20;9.53;;;-1.80;99.90;-2.20;99752.00;;;;4946034;28;116469;-67
2023/12/02 07:39:32;;;;;;;20.93;10.53;;;-1.70;99.90;-2.20;99762.00;;;;4952463;28;116505;-67
2023/12/02 07:41:58;;;;;;;20.10;9.83;;;-1.80;99.90;-2.10;99772.00;;;;4943814;28;109234;-66
2023/12/02 07:44:24;;;;;;;22.70;11.87;;;-1.70;99.90;-2.10;99756.00;;;;4945805;28;108627;-66
2023/12/02 07:46:50;;;;;;;21.50;10.07;;;-1.80;99.90;-2.10;99770.00;;;;4946086;28;88721;-66
2023/12/02 07:49:16;;;;;;;31.87;15.10;;;-1.40;99.90;-2.00;99763.00;;;;4942910;28;118592;-66
2023/12/02 07:51:41;;;;;;;22.87;12.23;;;-1.60;99.90;-2.10;99763.00;;;;4947919;28;111040;-68
2023/12/02 07:54:07;;;;;;;22.07;11.47;;;-1.60;99.90;-2.00;99756.00;;;;4945473;28;108372;-67
2023/12/02 07:56:33;;;;;;;26.93;12.33;;;-1.60;99.90;-2.10;99759.00;;;;4943152;28;88048;-66
2023/12/02 07:58:58;;;;;;;51.23;21.87;;;-1.60;99.90;-2.00;99757.00;;;;4946442;28;112020;-66
2023/12/02 08:01:24;;;;;;;25.10;13.53;;;-1.60;99.90;-2.00;99763.00;;;;4947813;28;112428;-67
2023/12/02 08:03:50;;;;;;;32.13;12.73;;;-1.60;99.90;-2.00;99765.00;;;;4940308;28;108792;-67
2023/12/02 08:06:16;;;;;;;23.03;12.73;;;-1.60;99.90;-1.90;99758.00;;;;4944537;28;103140;-67
2023/12/02 08:08:41;;;;;;;28.33;14.70;;;-1.60;99.90;-2.00;99744.00;;;;4946891;28;116208;-67
2023/12/02 08:11:07;;;;;;;24.73;13.10;;;-1.60;99.90;-1.90;99748.00;;;;4938108;28;115406;-66
2023/12/02 08:13:33;;;;;;;19.93;10.43;;;-1.50;99.90;-1.90;99741.00;;;;4946161;28;106988;-66
2023/12/02 08:15:59;;;;;;;20.70;10.50;;;-1.60;99.90;-2.00;99748.00;;;;4947191;28;118724;-67
2023/12/02 08:18:24;;;;;;;19.03;10.13;;;-1.50;99.90;-1.90;99744.00;;;;4943465;28;116807;-67
2023/12/02 08:20:50;;;;;;;19.67;10.17;;;-1.50;99.90;-1.90;99747.00;;;;4946705;28;111001;-67
2023/12/02 08:23:16;;;;;;;24.33;13.50;;;-1.60;99.90;-2.00;99750.00;;;;4945289;28;88159;-67
2023/12/02 08:25:42;;;;;;;17.80;10.80;;;-1.50;99.90;-1.90;99775.00;;;;4946568;28;88816;-67
2023/12/02 08:28:07;;;;;;;31.43;13.33;;;-1.50;99.90;-1.90;99762.00;;;;4945049;28;105112;-67
2023/12/02 08:30:33;;;;;;;28.30;12.80;;;-1.60;99.90;-1.90;99769.00;;;;4946395;28;113016;-67
2023/12/02 08:32:59;;;;;;;16.50;10.23;;;-1.50;99.90;-1.90;99774.00;;;;4943131;28;110681;-67
2023/12/02 08:35:24;;;;;;;20.30;10.40;;;-1.50;99.90;-1.90;99772.00;;;;4950105;28;118278;-66
2023/12/02 08:37:50;;;;;;;21.07;9.97;;;-1.50;99.90;-1.90;99781.00;;;;4944573;28;116066;-66
2023/12/02 08:40:16;;;;;;;17.33;9.80;;;-1.50;99.90;-1.90;99781.00;;;;4947639;28;88205;-67
2023/12/02 08:42:41;;;;;;;18.20;10.53;;;-1.50;99.90;-1.90;99782.00;;;;4943483;28;108865;-67
2023/12/02 08:45:07;;;;;;;19.77;11.10;;;-1.60;99.90;-1.90;99783.00;;;;4941546;28;118144;-68
2023/12/02 08:47:33;;;;;;;17.90;10.17;;;-1.60;99.90;-1.90;99781.00;;;;4945736;28;107571;-66
2023/12/02 08:49:59;;;;;;;18.23;8.97;;;-1.10;99.90;-1.90;99778.00;;;;4944620;28;114476;-66
2023/12/02 08:52:24;;;;;;;15.40;8.77;;;-1.50;99.90;-2.00;99779.00;;;;4946170;28;108784;-66
2023/12/02 08:54:50;;;;;;;23.20;10.70;;;-1.50;99.90;-2.00;99784.00;;;;4942533;28;88520;-67
2023/12/02 08:57:16;;;;;;;19.67;11.70;;;-1.60;99.90;-2.00;99777.00;;;;4939602;28;116178;-66
2023/12/02 08:59:41;;;;;;;20.93;10.57;;;-1.60;99.90;-2.00;99785.00;;;;4946844;28;112504;-67
2023/12/02 09:02:08;;;;;;;19.20;10.77;;;-1.60;99.90;-2.00;99769.00;;;;4950208;28;107168;-65
2023/12/02 09:04:34;;;;;;;20.10;11.37;;;-1.50;99.90;-1.90;99775.00;;;;4947430;28;114047;-66
2023/12/02 09:06:59;;;;;;;18.20;9.63;;;-1.50;99.90;-1.90;99760.00;;;;4948524;28;94691;-66
2023/12/02 09:09:25;;;;;;;18.37;9.67;;;-1.50;99.90;-1.80;99776.00;;;;4948720;28;112004;-66
2023/12/02 09:11:51;;;;;;;18.53;10.10;;;-1.40;99.90;-1.80;99777.00;;;;4947303;28;109589;-67
2023/12/02 09:14:17;;;;;;;16.90;9.83;;;-1.40;99.90;-1.70;99779.00;;;;4945564;28;89422;-67
2023/12/02 09:16:46;;;;;;;22.10;11.50;;;-1.40;99.90;-1.70;99781.00;;;;4948661;28;117748;-67
2023/12/02 09:19:52;;;;;;;13.13;7.60;;;-1.30;99.90;-1.70;99791.00;;;;4948679;28;88813;-66
2023/12/02 09:22:48;;;;;;;16.73;10.57;;;-1.30;99.90;-1.70;99802.00;;;;4951710;28;88007;-67
2023/12/02 09:25:26;;;;;;;17.80;8.90;;;-1.20;99.90;-1.70;99801.00;;;;4948999;28;89091;-67
2023/12/02 09:28:07;;;;;;;16.43;8.80;;;-1.20;99.90;-1.70;99809.00;;;;4948259;28;89674;-67
2023/12/02 09:30:36;;;;;;;15.10;7.97;;;-1.40;99.90;-1.70;99822.00;;;;4950643;28;88150;-68
2023/12/02 09:33:04;;;;;;;17.17;8.67;;;-1.20;99.90;-1.70;99817.00;;;;4945543;28;88568;-67
2023/12/02 09:35:30;;;;;;;13.23;8.60;;;-1.30;99.90;-1.60;99810.00;;;;4949597;28;87990;-67
2023/12/02 09:37:58;;;;;;;22.37;10.17;;;-1.30;99.90;-1.60;99795.00;;;;4948950;28;117480;-67
2023/12/02 09:40:38;;;;;;;13.67;8.40;;;-1.20;99.90;-1.60;99805.00;;;;4945089;28;88155;-68
2023/12/02 09:43:21;;;;;;;13.30;7.53;;;-1.20;99.90;-1.60;99801.00;;;;4946831;28;88047;-67
2023/12/02 09:45:58;;;;;;;13.93;7.27;;;-1.20;99.90;-1.60;99801.00;;;;4948001;28;87294;-67
2023/12/02 09:48:28;;;;;;;11.47;8.10;;;-1.20;99.90;-1.60;99803.00;;;;4948001;28;88093;-67
2023/12/02 09:51:45;;;;;;;13.17;8.40;;;-1.20;99.90;-1.60;99801.00;;;;4947668;28;88231;-67
2023/12/02 09:54:43;;;;;;;18.90;8.93;;;-1.20;99.90;-1.60;99797.00;;;;4945360;28;88756;-67
2023/12/02 09:57:12;;;;;;;16.77;8.80;;;-1.10;99.90;-1.60;99805.00;;;;4942511;28;93822;-66
2023/12/02 09:59:53;;;;;;;25.47;9.63;;;-1.00;99.90;-1.50;99794.00;;;;4939337;28;88316;-67
2023/12/02 10:02:43;;;;;;;18.77;9.27;;;-2.00;99.90;-1.50;99807.00;;;;4945290;28;101286;-67
2023/12/02 10:05:14;;;;;;;18.43;9.70;;;-1.10;99.90;-1.50;99819.00;;;;4928984;28;99831;-68
2023/12/02 10:07:59;;;;;;;17.30;9.60;;;-1.10;99.90;-1.40;99833.00;;;;4955082;28;88096;-68
2023/12/02 10:10:36;;;;;;;12.63;8.80;;;-1.00;99.90;-1.40;99831.00;;;;4947655;28;88392;-69
2023/12/02 10:13:19;;;;;;;17.07;7.63;;;-1.00;99.90;-1.30;99823.00;;;;4943004;28;87418;-68
2023/12/02 10:15:50;;;;;;;16.00;7.97;;;-1.00;99.90;-1.30;99824.00;;;;4948057;28;88046;-68
2023/12/02 10:18:21;;;;;;;14.27;8.83;;;-1.00;99.90;-1.30;99820.00;;;;4946616;28;87781;-68
2023/12/02 10:20:55;;;;;;;15.73;9.00;;;-0.90;99.90;-1.20;99810.00;;;;4955281;28;88808;-69
2023/12/02 10:23:37;;;;;;;16.47;8.87;;;-0.90;99.90;-1.20;99811.00;;;;4957159;28;88329;-68
2023/12/02 10:26:17;;;;;;;15.77;8.63;;;-0.70;99.90;-1.20;99813.00;;;;4953332;28;98263;-68
2023/12/02 10:28:59;;;;;;;17.93;8.70;;;-0.80;99.90;-1.10;99811.00;;;;4933976;28;111683;-68
2023/12/02 10:31:30;;;;;;;15.93;8.30;;;-0.80;99.90;-1.10;99808.00;;;;4951199;28;88049;-67
2023/12/02 10:34:03;;;;;;;16.17;9.30;;;-0.80;99.90;-1.10;99809.00;;;;4952122;28;100883;-69
2023/12/02 10:36:33;;;;;;;13.17;8.17;;;-0.70;99.90;-1.00;99802.00;;;;4947978;28;87649;-70
2023/12/02 10:39:11;;;;;;;18.43;10.00;;;-0.70;99.90;-1.00;99798.00;;;;4949972;28;86907;-68
2023/12/02 10:41:47;;;;;;;14.73;8.07;;;-0.70;99.90;-0.90;99800.00;;;;4948976;28;88150;-68
2023/12/02 10:44:16;;;;;;;14.07;8.10;;;-0.60;99.90;-0.90;99799.00;;;;4941334;28;87919;-67